Time;durP1;ratioP1;P1;durP2;ratioP2;P2;SDS_P1;SDS_P2;PMS_P1;PMS_P2;Temp;Humidity;BMP_temperature;BMP_pressure;BME280_temperature;BME280_humidity;BME280_pressure;Samples;Min_cycle;Max_cycle;Signal;HPM_P1;HPM_P2
2022/01/08 00:00:11;;;;;;;2.77;2.57;;;;;;;1.32;89.46;100154.09;5051222;28;20197;-86
2022/01/08 00:02:39;;;;;;;3.23;2.50;;;;;;;1.29;89.49;100152.44;5050029;28;20664;-86
2022/01/08 00:05:07;;;;;;;5.27;3.37;;;;;;;1.32;89.57;100154.97;5046253;28;20874;-86
2022/01/08 00:07:36;;;;;;;7.07;3.77;;;;;;;1.33;89.91;100159.28;5047432;28;20235;-86
2022/01/08 00:10:09;;;;;;;3.60;3.30;;;;;;;1.35;89.36;100154.84;5043628;28;20244;-87
2022/01/08 00:12:36;;;;;;;3.87;2.70;;;;;;;1.35;89.74;100167.97;5047904;28;20194;-84
2022/01/08 00:15:03;;;;;;;3.30;2.90;;;;;;;1.37;89.89;100162.69;5047013;28;20576;-81
2022/01/08 00:17:30;;;;;;;4.00;3.00;;;;;;;1.35;89.92;100159.25;5042932;28;20252;-83
2022/01/08 00:20:01;;;;;;;3.93;3.07;;;;;;;1.39;89.38;100159.09;5047036;28;20204;-83
2022/01/08 00:22:28;;;;;;;4.10;3.23;;;;;;;1.41;89.38;100160.81;5041372;28;20584;-83
2022/01/08 00:24:54;;;;;;;3.73;2.93;;;;;;;1.43;89.68;100156.38;5042652;28;20736;-84
2022/01/08 00:27:22;;;;;;;2.73;2.40;;;;;;;1.42;89.67;100160.78;5040826;28;20229;-84
2022/01/08 00:29:49;;;;;;;4.13;3.20;;;;;;;1.45;89.74;100155.38;5040864;28;20225;-84
2022/01/08 00:32:16;;;;;;;3.43;2.80;;;;;;;1.45;89.59;100170.28;5039464;28;20221;-84
2022/01/08 00:34:43;;;;;;;3.43;2.60;;;;;;;1.47;89.47;100155.34;5042480;28;20597;-85
2022/01/08 00:37:11;;;;;;;3.50;2.70;;;;;;;1.48;89.48;100162.31;5038971;28;20226;-84
2022/01/08 00:39:39;;;;;;;3.80;2.70;;;;;;;1.49;89.37;100159.63;5040851;28;20202;-84
2022/01/08 00:42:06;;;;;;;5.27;3.03;;;;;;;1.49;89.67;100164.88;5043534;28;20197;-85
2022/01/08 00:44:33;;;;;;;3.40;2.70;;;;;;;1.51;89.70;100164.81;5040981;28;20205;-84
2022/01/08 00:46:59;;;;;;;3.47;3.07;;;;;;;1.52;89.57;100162.16;5039214;28;20206;-84
2022/01/08 00:49:27;;;;;;;4.73;3.50;;;;;;;1.52;89.83;100161.28;5044904;28;20655;-85
2022/01/08 00:51:54;;;;;;;4.87;3.37;;;;;;;1.53;89.35;100157.75;5041439;28;20260;-84
2022/01/08 00:54:21;;;;;;;4.90;3.80;;;;;;;1.54;89.60;100160.34;5042216;28;20273;-84
2022/01/08 00:56:50;;;;;;;5.33;3.43;;;;;;;1.57;89.93;100162.88;5042757;28;20289;-82
2022/01/08 00:59:17;;;;;;;3.93;3.40;;;;;;;1.56;89.30;100160.28;5044352;28;20210;-84
2022/01/08 01:01:44;;;;;;;3.93;2.93;;;;;;;1.58;89.46;100166.34;5045403;28;20213;-84
2022/01/08 01:04:10;;;;;;;5.10;3.33;;;;;;;1.56;89.34;100161.16;5047950;28;20308;-84
2022/01/08 01:06:37;;;;;;;4.30;3.40;;;;;;;1.55;89.63;100154.19;5049211;28;20585;-85
2022/01/08 01:09:04;;;;;;;4.70;3.23;;;;;;;1.55;89.58;100162.06;5045182;28;20699;-85
2022/01/08 01:11:32;;;;;;;4.23;3.37;;;;;;;1.54;89.49;100159.47;5047077;28;21732;-85
2022/01/08 01:13:58;;;;;;;4.30;3.50;;;;;;;1.54;89.26;100160.34;5047396;28;20279;-86
2022/01/08 01:16:25;;;;;;;4.60;4.00;;;;;;;1.56;89.33;100155.03;5046250;28;20202;-85
2022/01/08 01:18:52;;;;;;;5.13;3.50;;;;;;;1.53;89.47;100153.38;5050119;28;20226;-85
2022/01/08 01:21:18;;;;;;;5.37;4.13;;;;;;;1.54;89.12;100160.34;5046310;28;20225;-85
2022/01/08 01:23:46;;;;;;;5.23;4.07;;;;;;;1.52;89.15;100150.81;5043429;28;20633;-85
2022/01/08 01:26:18;;;;;;;5.90;3.57;;;;;;;1.53;89.12;100155.13;5044445;28;20241;-86
2022/01/08 01:28:51;;;;;;;5.47;3.97;;;;;;;1.53;89.49;100157.75;5048195;28;20654;-85
2022/01/08 01:47:39;;;;;;;7.03;5.93;;;;;;;1.50;88.97;100142.97;5061007;28;20272;-85
2022/01/08 01:50:08;;;;;;;8.10;5.40;;;;;;;1.51;88.98;100151.72;5082185;22;20244;-69
2022/01/08 01:52:35;;;;;;;6.63;5.23;;;;;;;1.50;89.13;100142.13;5024633;28;20217;-69
2022/01/08 01:55:02;;;;;;;6.40;5.03;;;;;;;1.50;89.51;100137.72;5027469;28;20699;-69
2022/01/08 01:57:29;;;;;;;7.30;5.37;;;;;;;1.51;89.11;100141.22;5025958;28;20206;-69
2022/01/08 01:59:58;;;;;;;6.40;5.17;;;;;;;1.51;89.09;100141.22;5021511;28;20222;-69
2022/01/08 02:04:56;;;;;;;10.00;5.40;;;;;;;1.52;89.52;100132.44;5066416;22;20245;-74
2022/01/08 02:07:27;;;;;;;7.80;5.40;;;;;;;1.52;89.65;100135.06;5044935;28;20208;-75
2022/01/08 02:09:54;;;;;;;5.90;5.30;;;;;;;1.51;89.63;100134.19;5044378;28;20237;-75
2022/01/08 02:12:22;;;;;;;7.13;5.47;;;;;;;1.54;89.71;100138.50;5045261;28;20201;-75
2022/01/08 02:14:50;;;;;;;7.27;5.83;;;;;;;1.53;89.80;100142.88;5047363;28;20589;-72
2022/01/08 02:17:18;;;;;;;6.70;5.50;;;;;;;1.52;89.76;100135.91;5045490;28;20724;-74
2022/01/08 02:19:45;;;;;;;8.73;6.00;;;;;;;1.53;89.41;100148.13;5031454;28;20201;-73
2022/01/08 02:22:16;;;;;;;9.77;6.50;;;;;;;1.53;89.46;100144.66;5048271;28;20210;-73
2022/01/08 02:24:44;;;;;;;9.17;6.17;;;;;;;1.54;89.37;100141.13;5046060;28;20221;-73
2022/01/08 02:27:11;;;;;;;7.20;5.73;;;;;;;1.56;89.62;100134.03;5042849;28;20206;-74
2022/01/08 02:29:38;;;;;;;8.13;6.20;;;;;;;1.56;89.54;100131.41;5041867;28;20209;-73
2022/01/08 02:32:07;;;;;;;9.63;5.80;;;;;;;1.58;89.94;100132.22;5032654;28;20218;-73
2022/01/08 02:34:35;;;;;;;8.67;6.47;;;;;;;1.57;89.76;100135.75;5038313;28;20653;-73
2022/01/08 02:37:02;;;;;;;8.73;6.30;;;;;;;1.57;90.08;100139.25;5037876;28;20284;-73
2022/01/08 02:39:37;;;;;;;7.83;6.67;;;;;;;1.56;89.91;100137.53;5046020;28;20201;-73
2022/01/08 02:42:05;;;;;;;11.80;7.00;;;;;;;1.57;89.81;100133.13;5041629;28;20596;-73
2022/01/08 02:44:31;;;;;;;8.73;6.80;;;;;;;1.55;89.69;100146.31;5032375;28;20230;-74
2022/01/08 02:46:58;;;;;;;8.97;6.47;;;;;;;1.57;89.81;100139.25;5042492;28;20210;-73
2022/01/08 02:49:24;;;;;;;8.70;6.17;;;;;;;1.55;89.48;100141.06;5042664;28;20210;-74
2022/01/08 02:51:51;;;;;;;8.13;6.37;;;;;;;1.56;89.89;100136.66;5042977;28;20226;-73
2022/01/08 02:54:18;;;;;;;10.47;7.00;;;;;;;1.56;89.73;100137.53;5040319;28;20226;-74
2022/01/08 02:56:48;;;;;;;8.87;6.70;;;;;;;1.57;89.89;100136.63;5042737;28;20578;-73
2022/01/08 02:59:15;;;;;;;8.43;6.83;;;;;;;1.59;89.96;100139.19;5033850;28;20205;-74
2022/01/08 03:01:42;;;;;;;9.77;6.63;;;;;;;1.58;90.07;100140.97;5039540;28;20579;-73
2022/01/08 03:04:09;;;;;;;12.00;7.00;;;;;;;1.58;90.00;100134.84;5033642;28;20221;-74
2022/01/08 03:06:36;;;;;;;10.23;7.03;;;;;;;1.58;90.30;100129.59;5051047;28;20197;-73
2022/01/08 03:09:04;;;;;;;10.40;7.50;;;;;;;1.60;89.92;100138.28;5039346;28;20206;-73
2022/01/08 03:11:30;;;;;;;10.50;7.80;;;;;;;1.61;90.18;100134.75;5039525;28;20229;-74
2022/01/08 03:13:59;;;;;;;11.83;7.97;;;;;;;1.62;90.45;100128.56;5047187;28;20597;-73
2022/01/08 03:16:25;;;;;;;12.07;8.50;;;;;;;1.61;90.50;100122.44;5034652;28;20293;-75
2022/01/08 03:18:52;;;;;;;10.03;7.43;;;;;;;1.61;90.37;100125.06;5041608;28;20210;-74
2022/01/08 03:21:21;;;;;;;10.23;8.70;;;;;;;1.62;90.22;100139.06;5043723;28;20206;-74
2022/01/08 03:23:53;;;;;;;14.43;9.37;;;;;;;1.61;90.19;100138.19;5036719;28;20233;-74
2022/01/08 03:26:23;;;;;;;12.80;8.93;;;;;;;1.61;90.06;100135.56;5033996;28;20217;-74
2022/01/08 03:28:50;;;;;;;15.07;10.43;;;;;;;1.60;90.35;100138.28;5045698;28;20197;-74
2022/01/08 03:31:19;;;;;;;14.73;11.03;;;;;;;1.59;89.94;100144.44;5053241;28;20235;-74
2022/01/08 03:33:46;;;;;;;16.83;10.57;;;;;;;1.58;90.51;100140.97;5049782;28;20237;-74
2022/01/08 03:36:13;;;;;;;16.33;10.03;;;;;;;1.60;89.98;100149.66;5044173;28;20206;-74
2022/01/08 03:38:40;;;;;;;14.40;10.37;;;;;;;1.61;90.35;100150.50;5045016;28;20202;-74
2022/01/08 03:41:06;;;;;;;15.93;10.37;;;;;;;1.61;90.15;100156.56;5040977;28;20675;-73
2022/01/08 03:43:34;;;;;;;16.17;10.70;;;;;;;1.63;89.75;100160.00;5033405;28;20237;-74
2022/01/08 03:46:03;;;;;;;18.80;10.87;;;;;;;1.64;89.98;100160.88;5041065;28;20492;-74
2022/01/08 03:48:33;;;;;;;16.57;10.47;;;;;;;1.64;89.44;100166.13;5035485;28;20582;-74
2022/01/08 03:51:00;;;;;;;15.30;10.50;;;;;;;1.66;89.48;100162.53;5052618;28;20233;-74
2022/01/08 03:53:28;;;;;;;17.30;11.07;;;;;;;1.67;90.06;100163.38;5040155;28;20230;-74
2022/01/08 03:55:55;;;;;;;14.93;10.43;;;;;;;1.68;89.54;100157.22;5038384;28;20690;-74
2022/01/08 03:58:22;;;;;;;22.77;10.57;;;;;;;1.68;89.95;100151.97;5040915;28;20202;-74
2022/01/08 04:00:49;;;;;;;15.63;10.87;;;;;;;1.70;89.77;100150.16;5032945;28;20195;-74
2022/01/08 04:03:18;;;;;;;16.43;10.50;;;;;;;1.69;89.75;100154.56;5041144;28;20238;-74
2022/01/08 04:05:46;;;;;;;14.70;10.53;;;;;;;1.70;89.79;100145.78;5033206;28;20207;-74
2022/01/08 04:08:13;;;;;;;17.57;11.30;;;;;;;1.69;89.73;100144.06;5042165;28;20240;-74
2022/01/08 04:10:39;;;;;;;18.90;10.50;;;;;;;1.69;89.22;100141.44;5037400;28;20240;-74
2022/01/08 04:13:11;;;;;;;22.33;11.53;;;;;;;1.68;89.29;100141.47;5040761;28;20329;-74
2022/01/08 04:15:41;;;;;;;19.57;11.83;;;;;;;1.67;89.10;100145.00;5042524;28;20517;-74
2022/01/08 04:18:08;;;;;;;23.43;12.33;;;;;;;1.66;88.96;100135.44;5031753;28;20764;-74
2022/01/08 04:20:44;;;;;;;19.60;12.27;;;;;;;1.64;89.06;100134.63;5036768;28;20206;-74
2022/01/08 04:23:14;;;;;;;20.97;13.00;;;;;;;1.61;89.02;100130.31;5041015;28;20224;-74
2022/01/08 04:25:40;;;;;;;21.33;13.33;;;;;;;1.60;89.15;100136.53;5044630;28;20295;-74
2022/01/08 04:28:07;;;;;;;19.23;12.73;;;;;;;1.58;89.24;100143.59;5042288;28;20678;-74
2022/01/08 04:30:33;;;;;;;22.60;13.13;;;;;;;1.57;89.14;100141.88;5031389;28;20229;-74
2022/01/08 04:33:00;;;;;;;21.80;13.87;;;;;;;1.56;89.18;100145.41;5044641;28;20236;-74
2022/01/08 04:35:27;;;;;;;18.53;12.43;;;;;;;1.56;89.00;100149.78;5043239;28;20216;-74
2022/01/08 04:37:53;;;;;;;22.93;13.53;;;;;;;1.56;88.82;100162.91;5036325;28;20206;-74
2022/01/08 04:40:21;;;;;;;24.43;13.97;;;;;;;1.55;88.84;100153.31;5031951;28;20206;-74
2022/01/08 04:42:47;;;;;;;19.83;13.07;;;;;;;1.56;88.47;100157.66;5037037;28;20209;-74
2022/01/08 04:45:14;;;;;;;21.77;13.07;;;;;;;1.57;88.69;100154.13;5033395;28;20221;-74
2022/01/08 04:47:41;;;;;;;23.83;13.57;;;;;;;1.55;88.93;100145.44;5037707;28;20214;-74
2022/01/08 04:50:08;;;;;;;26.00;13.37;;;;;;;1.56;88.52;100149.78;5034050;28;20214;-74
2022/01/08 04:52:34;;;;;;;23.33;14.37;;;;;;;1.57;88.56;100143.63;5030747;28;20226;-74
2022/01/08 04:55:01;;;;;;;25.27;14.70;;;;;;;1.56;88.31;100144.53;5030969;28;20210;-74
2022/01/08 04:57:29;;;;;;;25.60;14.90;;;;;;;1.57;88.33;100146.25;5034740;28;20678;-74
2022/01/08 04:59:56;;;;;;;25.37;14.87;;;;;;;1.57;88.45;100156.75;5030568;28;20206;-74
2022/01/08 05:02:22;;;;;;;25.77;15.17;;;;;;;1.57;88.37;100148.88;5043159;28;20201;-75
2022/01/08 05:04:49;;;;;;;27.70;16.03;;;;;;;1.57;89.09;100155.00;5034378;28;20230;-75
2022/01/08 05:07:15;;;;;;;24.97;16.33;;;;;;;1.59;88.37;100161.03;5034926;28;20660;-75
2022/01/08 05:09:42;;;;;;;25.33;15.27;;;;;;;1.58;88.94;100161.97;5033199;28;20210;-73
2022/01/08 05:12:09;;;;;;;30.10;15.33;;;;;;;1.59;88.70;100166.28;5053134;28;20236;-73
2022/01/08 05:14:37;;;;;;;32.03;16.83;;;;;;;1.60;88.34;100159.28;5042072;28;20232;-73
2022/01/08 05:17:04;;;;;;;30.90;16.57;;;;;;;1.61;88.65;100163.63;5034491;28;20225;-73
2022/01/08 05:19:42;;;;;;;34.80;17.27;;;;;;;1.60;89.12;100159.28;5038972;28;20214;-73
2022/01/08 05:22:17;;;;;;;27.73;17.13;;;;;;;1.61;88.67;100166.25;5043098;28;20201;-74
2022/01/08 05:24:43;;;;;;;24.90;15.07;;;;;;;1.61;88.50;100161.00;5032173;28;20725;-74
2022/01/08 05:27:15;;;;;;;22.17;13.90;;;;;;;1.60;88.63;100175.88;5037150;28;20221;-74
2022/01/08 05:29:43;;;;;;;23.33;13.90;;;;;;;1.59;89.08;100171.53;5042155;28;20210;-74
2022/01/08 05:32:16;;;;;;;23.93;14.60;;;;;;;1.58;88.29;100166.34;5037604;28;20241;-74
2022/01/08 05:34:43;;;;;;;27.33;15.33;;;;;;;1.57;88.81;100162.88;5039265;28;20699;-74
2022/01/08 05:37:10;;;;;;;27.77;15.03;;;;;;;1.55;88.70;100162.06;5045379;28;20663;-74
2022/01/08 05:39:36;;;;;;;30.07;14.90;;;;;;;1.53;87.97;100170.88;5037155;28;20210;-74
2022/01/08 05:42:03;;;;;;;29.90;15.17;;;;;;;1.50;88.59;100178.84;5037770;28;20202;-74
2022/01/08 05:44:30;;;;;;;25.20;15.73;;;;;;;1.47;88.57;100178.97;5040538;28;20573;-74
2022/01/08 05:46:57;;;;;;;29.97;14.77;;;;;;;1.45;88.58;100175.53;5042802;28;20571;-74
2022/01/08 05:49:24;;;;;;;25.00;14.90;;;;;;;1.42;88.37;100179.13;5044549;28;20210;-74
2022/01/08 05:51:51;;;;;;;26.30;15.50;;;;;;;1.41;88.52;100189.69;5041806;28;20225;-74
2022/01/08 05:54:17;;;;;;;30.83;14.93;;;;;;;1.39;88.34;100190.59;5041177;28;20233;-73
2022/01/08 05:56:44;;;;;;;27.27;14.70;;;;;;;1.38;88.18;100190.63;5038172;28;20201;-74
2022/01/08 05:59:10;;;;;;;28.53;15.10;;;;;;;1.37;87.83;100200.28;5050636;28;20209;-74
2022/01/08 06:01:37;;;;;;;24.50;15.23;;;;;;;1.34;87.84;100197.75;5046377;28;20210;-74
2022/01/08 06:04:05;;;;;;;27.63;15.13;;;;;;;1.32;88.31;100196.94;5031591;28;20233;-74
2022/01/08 06:06:31;;;;;;;26.50;14.43;;;;;;;1.32;88.36;100196.06;5037822;28;20548;-74
2022/01/08 06:08:58;;;;;;;22.77;13.73;;;;;;;1.29;87.96;100197.03;5038399;28;20593;-73
2022/01/08 06:11:24;;;;;;;30.67;15.20;;;;;;;1.29;87.46;100202.28;5030741;28;20618;-74
2022/01/08 06:13:52;;;;;;;21.30;13.53;;;;;;;1.29;87.75;100218.00;5033562;28;20691;-74
2022/01/08 06:16:18;;;;;;;26.57;15.60;;;;;;;1.28;87.61;100220.69;5042715;28;20210;-74
2022/01/08 06:18:45;;;;;;;25.70;15.47;;;;;;;1.28;87.60;100215.44;5037010;28;20209;-74
2022/01/08 06:21:12;;;;;;;28.77;14.33;;;;;;;1.28;88.01;100226.78;5044559;28;20674;-74
2022/01/08 06:23:39;;;;;;;24.03;14.70;;;;;;;1.27;87.70;100227.69;5029639;28;20228;-74
2022/01/08 06:26:06;;;;;;;23.73;13.90;;;;;;;1.28;87.45;100229.41;5033890;28;20199;-73
2022/01/08 06:28:33;;;;;;;25.73;14.17;;;;;;;1.28;87.66;100237.28;5038967;28;20301;-74
2022/01/08 06:30:59;;;;;;;24.23;14.43;;;;;;;1.28;87.43;100236.41;5031147;28;20218;-73
2022/01/08 06:33:26;;;;;;;21.87;13.97;;;;;;;1.29;87.52;100236.38;5029055;28;20253;-74
2022/01/08 06:35:52;;;;;;;27.13;13.73;;;;;;;1.30;88.04;100240.72;5041135;28;20682;-74
2022/01/08 06:38:20;;;;;;;23.37;13.77;;;;;;;1.30;87.70;100245.97;5032522;28;20212;-73
2022/01/08 06:40:47;;;;;;;21.27;13.70;;;;;;;1.30;87.62;100248.59;5034466;28;20202;-74
2022/01/08 06:43:13;;;;;;;24.07;13.63;;;;;;;1.29;87.77;100241.63;5034385;28;20222;-74
2022/01/08 06:45:40;;;;;;;22.37;13.20;;;;;;;1.30;88.04;100245.09;5040340;28;20212;-73
2022/01/08 06:48:06;;;;;;;16.57;11.67;;;;;;;1.30;87.61;100248.59;5032562;28;20580;-73
2022/01/08 06:50:33;;;;;;;21.47;12.63;;;;;;;1.30;88.06;100245.09;5032167;28;20690;-73
2022/01/08 06:52:59;;;;;;;25.53;13.93;;;;;;;1.32;87.43;100244.16;5039234;28;20230;-73
2022/01/08 06:55:27;;;;;;;24.87;12.13;;;;;;;1.30;87.71;100245.97;5036628;28;20213;-73
2022/01/08 06:57:55;;;;;;;24.00;14.10;;;;;;;1.31;87.36;100252.06;5035904;28;20211;-74
2022/01/08 07:00:21;;;;;;;24.57;12.33;;;;;;;1.29;87.32;100254.75;5042868;28;20240;-73
2022/01/08 07:02:48;;;;;;;19.83;12.33;;;;;;;1.28;87.87;100250.41;5034396;28;20248;-75
2022/01/08 07:05:14;;;;;;;20.93;12.10;;;;;;;1.28;87.61;100262.66;5037703;28;20217;-73
2022/01/08 07:07:41;;;;;;;23.43;13.20;;;;;;;1.26;87.73;100262.69;5033776;28;20199;-73
2022/01/08 07:10:08;;;;;;;22.00;12.40;;;;;;;1.24;87.27;100280.28;5040410;28;20210;-73
2022/01/08 07:12:36;;;;;;;22.53;12.53;;;;;;;1.26;87.69;100277.56;5034841;28;20237;-74
2022/01/08 07:15:03;;;;;;;24.23;13.03;;;;;;;1.26;87.24;100265.31;5042267;28;20209;-74
2022/01/08 07:17:30;;;;;;;23.93;12.87;;;;;;;1.27;87.68;100277.53;5035928;28;20206;-74
2022/01/08 07:19:56;;;;;;;24.13;13.07;;;;;;;1.28;87.24;100273.16;5042367;28;20215;-74
2022/01/08 07:22:23;;;;;;;24.83;14.63;;;;;;;1.28;87.36;100276.63;5056527;28;20201;-74
2022/01/08 07:24:49;;;;;;;24.30;13.43;;;;;;;1.30;87.36;100279.22;5039627;28;20229;-72
2022/01/08 07:27:16;;;;;;;25.10;14.43;;;;;;;1.30;88.06;100273.97;5032524;28;20202;-73
2022/01/08 07:29:44;;;;;;;28.73;14.57;;;;;;;1.28;87.19;100274.00;5035980;28;20233;-74
2022/01/08 07:32:10;;;;;;;27.13;14.87;;;;;;;1.27;87.70;100277.53;5033878;28;20240;-74
2022/01/08 07:34:37;;;;;;;22.50;12.70;;;;;;;1.27;87.78;100277.53;5042607;28;20749;-74
2022/01/08 07:37:04;;;;;;;20.93;13.27;;;;;;;1.28;87.68;100281.03;5035525;28;20221;-74
2022/01/08 07:39:30;;;;;;;27.60;14.50;;;;;;;1.26;87.75;100272.34;5028783;28;20210;-74
2022/01/08 07:41:57;;;;;;;25.07;13.73;;;;;;;1.26;87.39;100274.97;5045973;28;20217;-74
2022/01/08 07:44:24;;;;;;;26.67;14.40;;;;;;;1.25;87.82;100276.75;5037658;28;20518;-74
2022/01/08 07:46:52;;;;;;;24.70;13.53;;;;;;;1.25;87.70;100274.13;5045189;28;20205;-74
2022/01/08 07:49:18;;;;;;;24.57;12.90;;;;;;;1.25;87.58;100265.41;5046648;28;20206;-74
2022/01/08 07:51:45;;;;;;;24.27;14.27;;;;;;;1.24;87.80;100272.41;5044110;28;20225;-73
2022/01/08 07:54:11;;;;;;;25.30;13.13;;;;;;;1.24;87.55;100272.41;5043096;28;20681;-74
2022/01/08 07:56:38;;;;;;;30.10;14.57;;;;;;;1.23;87.95;100277.69;5048090;28;20336;-73
2022/01/08 07:59:04;;;;;;;27.07;14.53;;;;;;;1.23;87.61;100281.19;5047194;28;20198;-74
2022/01/08 08:01:31;;;;;;;21.57;13.33;;;;;;;1.22;87.52;100283.84;5032514;28;20203;-74
2022/01/08 08:03:59;;;;;;;26.23;13.83;;;;;;;1.22;87.52;100268.97;5078200;23;20235;-72
2022/01/08 08:06:25;;;;;;;23.97;12.90;;;;;;;1.22;87.66;100268.97;5016413;28;20210;-73
2022/01/08 08:08:52;;;;;;;23.53;13.70;;;;;;;1.21;87.76;100269.88;5019997;28;20202;-73
2022/01/08 08:11:18;;;;;;;25.77;14.77;;;;;;;1.22;87.54;100262.88;5020270;28;20214;-71
2022/01/08 08:13:45;;;;;;;26.33;14.27;;;;;;;1.22;87.93;100260.25;5018254;28;20739;-70
2022/01/08 08:16:11;;;;;;;23.83;13.23;;;;;;;1.21;87.70;100262.00;5022354;28;20217;-71
2022/01/08 08:18:38;;;;;;;26.40;13.63;;;;;;;1.22;87.91;100263.72;5016446;28;20675;-73
2022/01/08 08:21:06;;;;;;;27.87;13.93;;;;;;;1.22;87.80;100260.25;5016194;28;20215;-72
2022/01/08 08:23:32;;;;;;;24.17;12.87;;;;;;;1.22;88.27;100261.09;5023562;28;20230;-72
2022/01/08 08:25:59;;;;;;;22.57;13.87;;;;;;;1.21;87.75;100251.50;5017526;28;20203;-71
2022/01/08 08:28:25;;;;;;;25.00;14.07;;;;;;;1.19;88.38;100248.09;5023601;28;20221;-72
2022/01/08 08:30:52;;;;;;;31.70;14.97;;;;;;;1.22;88.54;100255.00;5020414;28;20225;-70
2022/01/08 08:33:18;;;;;;;27.47;12.87;;;;;;;1.25;88.34;100257.53;5029899;28;20241;-72
2022/01/08 08:35:45;;;;;;;23.67;13.57;;;;;;;1.24;88.04;100264.53;5028687;28;20225;-71
2022/01/08 08:38:13;;;;;;;34.00;14.43;;;;;;;1.25;88.06;100263.63;5025574;28;20211;-72
2022/01/08 08:40:39;;;;;;;29.00;15.77;;;;;;;1.27;88.37;100261.78;5021830;28;20673;-71
2022/01/08 08:43:06;;;;;;;27.77;14.13;;;;;;;1.26;87.93;100265.31;5018616;28;20209;-71
2022/01/08 08:45:33;;;;;;;26.93;13.07;;;;;;;1.27;87.91;100255.69;5021361;28;20677;-71
2022/01/08 08:47:59;;;;;;;27.47;14.83;;;;;;;1.30;88.42;100256.47;5026480;28;20298;-72
2022/01/08 08:50:26;;;;;;;22.30;13.07;;;;;;;1.32;87.88;100254.66;5023777;28;20214;-72
2022/01/08 08:52:54;;;;;;;30.77;15.53;;;;;;;1.33;87.87;100258.13;5017529;28;20234;-72
2022/01/08 08:55:22;;;;;;;26.90;14.90;;;;;;;1.33;87.95;100245.88;5021105;28;20252;-70
2022/01/08 08:57:49;;;;;;;25.60;14.90;;;;;;;1.34;88.37;100254.59;5022608;28;20202;-72
2022/01/08 09:00:16;;;;;;;25.80;14.80;;;;;;;1.33;88.05;100251.13;5017383;28;20202;-71
2022/01/08 09:02:43;;;;;;;26.23;14.07;;;;;;;1.35;88.75;100251.94;5017964;28;21081;-71
2022/01/08 09:05:10;;;;;;;26.47;13.80;;;;;;;1.39;88.43;100257.94;5013758;28;20230;-70
2022/01/08 09:07:36;;;;;;;23.50;13.33;;;;;;;1.41;88.04;100256.13;5012458;28;20203;-71
2022/01/08 09:10:04;;;;;;;26.23;13.97;;;;;;;1.44;88.57;100255.16;5020813;28;20211;-72
2022/01/08 09:12:32;;;;;;;29.00;14.13;;;;;;;1.46;88.20;100256.81;5022449;28;20240;-72
2022/01/08 09:14:58;;;;;;;28.13;14.43;;;;;;;1.48;88.13;100248.91;5017912;28;20230;-71
2022/01/08 09:17:25;;;;;;;29.73;14.67;;;;;;;1.50;88.33;100253.19;5021607;28;20203;-71
2022/01/08 09:19:52;;;;;;;25.67;14.30;;;;;;;1.54;88.58;100269.72;5025312;28;20202;-72
2022/01/08 09:22:19;;;;;;;23.30;15.07;;;;;;;1.56;88.41;100260.03;5021558;28;20205;-72
2022/01/08 09:24:46;;;;;;;27.37;14.10;;;;;;;1.58;88.07;100263.47;5022414;28;20241;-72
2022/01/08 09:27:13;;;;;;;30.00;15.73;;;;;;;1.60;88.55;100270.38;5020443;28;20848;-71
2022/01/08 09:29:41;;;;;;;27.33;14.77;;;;;;;1.63;88.39;100267.63;5018045;28;20206;-71
2022/01/08 09:32:09;;;;;;;29.00;15.87;;;;;;;1.65;88.39;100267.56;5020553;28;20234;-72
2022/01/08 09:34:36;;;;;;;29.50;15.70;;;;;;;1.62;88.46;100262.41;5015718;28;20668;-70
2022/01/08 09:37:04;;;;;;;32.23;15.53;;;;;;;1.64;88.28;100263.22;5016546;28;20211;-72
2022/01/08 09:39:30;;;;;;;26.40;14.87;;;;;;;1.63;88.27;100269.38;5014825;28;20206;-73
2022/01/08 09:41:57;;;;;;;27.87;14.97;;;;;;;1.65;87.64;100262.31;5012888;28;20207;-73
2022/01/08 09:44:24;;;;;;;26.67;14.83;;;;;;;1.68;87.82;100257.84;5011782;28;20234;-72
2022/01/08 09:46:52;;;;;;;25.13;13.90;;;;;;;1.67;87.57;100250.00;5020923;28;20297;-72
2022/01/08 09:49:19;;;;;;;26.37;13.77;;;;;;;1.72;87.84;100253.34;5017117;28;20233;-72
2022/01/08 09:51:45;;;;;;;36.40;14.73;;;;;;;1.72;87.94;100253.34;5014522;28;20212;-71
2022/01/08 09:54:12;;;;;;;25.93;14.77;;;;;;;1.76;87.71;100252.34;5018056;28;20710;-71
2022/01/08 09:56:38;;;;;;;32.00;14.93;;;;;;;1.77;87.49;100250.59;5020409;28;20204;-72
2022/01/08 09:59:05;;;;;;;30.03;15.50;;;;;;;1.80;87.87;100246.06;5021648;28;20203;-72
2022/01/08 10:01:34;;;;;;;27.63;13.13;;;;;;;1.87;87.83;100241.47;5024173;28;20275;-71
2022/01/08 10:04:05;;;;;;;24.00;14.03;;;;;;;1.90;87.39;100244.84;5020643;28;20243;-71
2022/01/08 10:06:34;;;;;;;27.60;14.33;;;;;;;1.95;87.61;100240.31;5020600;28;20668;-72
2022/01/08 10:09:01;;;;;;;27.73;15.10;;;;;;;1.97;87.39;100241.09;5021006;28;20206;-72
2022/01/08 10:11:29;;;;;;;32.73;15.40;;;;;;;1.98;87.44;100239.31;5020308;28;20389;-72
2022/01/08 10:14:02;;;;;;;36.73;16.97;;;;;;;1.98;87.54;100249.81;5022991;28;20230;-71
2022/01/08 10:19:21;;;;;;;26.43;14.87;;;;;;;2.01;87.36;100244.47;5022167;28;20521;-71
2022/01/08 10:21:49;;;;;;;25.77;13.70;;;;;;;2.03;87.77;100242.66;5024113;28;20206;-71
2022/01/08 10:24:21;;;;;;;27.13;13.90;;;;;;;2.02;87.69;100252.28;5021366;28;20575;-72
2022/01/08 10:26:49;;;;;;;25.77;14.87;;;;;;;2.01;86.91;100249.72;5018755;28;20293;-71
2022/01/08 10:29:18;;;;;;;34.83;15.87;;;;;;;2.02;87.53;100249.66;5020261;28;20203;-71
2022/01/08 10:31:46;;;;;;;34.47;13.87;;;;;;;2.09;86.87;100247.69;5023417;28;20216;-71
2022/01/08 10:34:14;;;;;;;30.73;16.23;;;;;;;2.08;86.94;100236.34;5019958;28;20695;-71
2022/01/08 10:36:44;;;;;;;23.17;12.77;;;;;;;2.08;87.26;100236.34;5021013;28;20206;-71
2022/01/08 10:39:13;;;;;;;30.70;17.13;;;;;;;2.11;87.19;100242.41;5023265;28;20210;-71
2022/01/08 10:41:41;;;;;;;30.37;16.33;;;;;;;2.12;87.00;100233.59;5022086;28;20206;-73
2022/01/08 10:44:12;;;;;;;28.90;14.67;;;;;;;2.14;87.06;100235.28;5025629;28;20787;-71
2022/01/08 10:46:39;;;;;;;34.63;19.80;;;;;;;2.16;86.61;100232.56;5020479;28;20229;-72
2022/01/08 10:49:06;;;;;;;33.13;15.53;;;;;;;2.18;86.52;100234.22;5022125;28;20210;-72
2022/01/08 10:51:37;;;;;;;31.37;16.50;;;;;;;2.20;87.10;100228.91;5024057;28;20205;-73
2022/01/08 10:54:11;;;;;;;40.87;21.50;;;;;;;2.20;87.19;100224.53;5021644;28;20234;-72
2022/01/08 10:56:40;;;;;;;35.90;19.73;;;;;;;2.22;87.18;100219.22;5023467;28;20214;-71
2022/01/08 10:59:20;;;;;;;47.07;25.87;;;;;;;2.26;87.15;100212.94;5019187;28;20215;-71
2022/01/08 11:01:53;;;;;;;29.23;13.27;;;;;;;2.29;86.77;100210.22;5014382;28;20217;-70
2022/01/08 11:04:32;;;;;;;31.70;16.53;;;;;;;2.32;86.94;100203.09;5023975;28;20254;-72
2022/01/08 11:07:00;;;;;;;36.93;19.70;;;;;;;2.33;86.39;100196.88;5017271;28;20239;-71
2022/01/08 11:09:29;;;;;;;34.43;15.53;;;;;;;2.37;87.05;100192.38;5019274;28;20203;-72
2022/01/08 11:11:59;;;;;;;31.40;15.77;;;;;;;2.39;87.31;100194.03;5018927;28;20217;-71
2022/01/08 11:14:48;;;;;;;27.40;13.37;;;;;;;2.40;86.99;100185.25;5016514;28;20235;-71
2022/01/08 11:17:20;;;;;;;36.23;21.87;;;;;;;2.46;86.77;100197.31;5017539;28;20203;-71
2022/01/08 11:19:49;;;;;;;25.83;13.63;;;;;;;2.50;86.64;100196.28;5022690;28;20679;-71
2022/01/08 11:22:18;;;;;;;27.00;12.87;;;;;;;2.52;86.23;100199.69;5021532;28;20203;-71
2022/01/08 11:24:51;;;;;;;26.90;13.93;;;;;;;2.57;86.47;100187.22;5022668;28;20225;-71
2022/01/08 11:27:23;;;;;;;27.07;13.50;;;;;;;2.59;86.09;100185.41;5021396;28;20217;-71
2022/01/08 11:30:10;;;;;;;28.37;13.23;;;;;;;2.59;86.12;100180.16;5020748;28;20217;-71
2022/01/08 11:32:38;;;;;;;26.40;13.43;;;;;;;2.58;85.97;100181.06;5026493;28;20206;-72
2022/01/08 11:35:08;;;;;;;23.03;11.93;;;;;;;2.60;85.21;100184.50;5028570;28;20241;-73
2022/01/08 11:37:35;;;;;;;36.27;13.47;;;;;;;2.59;85.86;100177.53;5034040;28;20715;-72
2022/01/08 11:40:07;;;;;;;23.77;12.57;;;;;;;2.62;86.02;100169.53;5026541;28;20207;-72
2022/01/08 11:42:35;;;;;;;30.23;13.60;;;;;;;2.66;85.40;100163.25;5024747;28;20675;-72
2022/01/08 11:45:05;;;;;;;26.17;12.20;;;;;;;2.68;85.68;100160.56;5023832;28;20238;-72